Time;durP1;ratioP1;P1;durP2;ratioP2;P2;SDS_P1;SDS_P2;PMS_P1;PMS_P2;Temp;Humidity;BMP_temperature;BMP_pressure;BME280_temperature;BME280_humidity;BME280_pressure;Samples;Min_cycle;Max_cycle;Signal;HPM_P1;HPM_P2
2022/10/18 00:00:46;;;;;;;1999.90;999.90;;;16.60;99.90;;;;;;5093533;28;20244;-68
2022/10/18 00:03:12;;;;;;;1999.90;999.90;;;16.60;99.90;;;;;;5093643;28;20554;-68
2022/10/18 00:05:37;;;;;;;1999.90;999.90;;;16.50;99.90;;;;;;5093273;28;20400;-69
2022/10/18 00:08:03;;;;;;;1999.90;999.90;;;16.60;99.90;;;;;;5092945;28;20628;-68
2022/10/18 00:10:29;;;;;;;1999.90;999.90;;;16.60;99.90;;;;;;5093240;28;20177;-68
2022/10/18 00:12:54;;;;;;;1999.90;999.90;;;16.60;99.90;;;;;;5093135;28;20257;-68
2022/10/18 00:15:20;;;;;;;1999.90;999.90;;;16.50;99.90;;;;;;5093128;28;20183;-69
2022/10/18 01:01:51;;;;;;;1999.90;999.90;;;16.50;99.90;;;;;;5066145;28;20456;-67
2022/10/18 01:04:19;;;;;;;1999.90;999.90;;;16.50;99.90;;;;;;5072072;28;20396;-67
2022/10/18 01:07:27;;;;;;;1999.90;999.90;;;16.50;99.90;;;;;;5071862;28;20936;-66
2022/10/18 01:10:17;;;;;;;1999.90;999.90;;;16.50;99.90;;;;;;5072087;28;20982;-66
2022/10/18 01:13:04;;;;;;;1999.90;999.90;;;16.60;99.90;;;;;;5071994;28;20408;-67
2022/10/18 01:15:42;;;;;;;1999.90;999.90;;;16.50;99.90;;;;;;5072010;28;20396;-66
2022/10/18 01:18:33;;;;;;;1999.90;999.90;;;16.50;99.90;;;;;;5071848;28;20490;-67
2022/10/18 01:21:20;;;;;;;1999.90;999.90;;;16.40;99.90;;;;;;5071858;28;20459;-67
2022/10/18 01:24:23;;;;;;;1999.90;999.90;;;16.50;99.90;;;;;;5071966;28;20393;-66
2022/10/18 01:46:55;;;;;;;1999.90;999.90;;;16.30;99.90;;;;;;5071559;28;20391;-66
2022/10/18 01:49:20;;;;;;;1999.90;999.90;;;16.40;99.90;;;;;;5071616;28;20775;-66
2022/10/18 01:51:46;;;;;;;1999.90;999.90;;;16.40;99.90;;;;;;5071447;28;20439;-66
2022/10/18 01:54:16;;;;;;;1999.90;999.90;;;16.40;99.90;;;;;;5071786;28;20597;-66
2022/10/18 01:57:17;;;;;;;1999.90;999.90;;;16.40;99.90;;;;;;5071475;28;20262;-67
2022/10/18 02:00:04;;;;;;;1999.90;999.90;;;16.50;99.90;;;;;;5071480;28;20892;-66
2022/10/18 02:02:42;;;;;;;1999.90;999.90;;;16.50;99.90;;;;;;5071377;28;20878;-66
2022/10/18 02:05:23;;;;;;;1999.90;999.90;;;16.60;99.90;;;;;;5075570;28;20405;-66
2022/10/18 02:08:29;;;;;;;1999.90;999.90;;;16.60;99.90;;;;;;5075112;28;20443;-66
2022/10/18 02:11:14;;;;;;;1999.90;999.90;;;16.50;99.90;;;;;;5052192;28;20443;-67
2022/10/18 02:13:45;;;;;;;1999.90;999.90;;;16.50;99.90;;;;;;5075226;28;20465;-66
2022/10/18 02:16:16;;;;;;;1999.90;999.90;;;16.50;99.90;;;;;;5075081;28;20436;-67
2022/10/18 02:18:50;;;;;;;1999.90;999.90;;;16.50;99.90;;;;;;5075037;28;20404;-66
2022/10/18 02:21:19;;;;;;;1999.90;999.90;;;16.40;99.90;;;;;;5075021;28;20513;-66
2022/10/18 02:23:46;;;;;;;1999.90;999.90;;;16.40;99.90;;;;;;5075127;28;20442;-66
2022/10/18 02:43:37;;;;;;;1999.90;999.90;;;16.40;99.90;;;;;;5074730;28;20420;-66
2022/10/18 02:46:03;;;;;;;1999.90;999.90;;;16.40;99.90;;;;;;5074328;28;20483;-67
2022/10/18 02:48:28;;;;;;;1999.90;999.90;;;16.40;99.90;;;;;;5074406;28;20492;-67
2022/10/18 02:50:54;;;;;;;1999.90;999.90;;;16.40;99.90;;;;;;5074392;28;20202;-66
2022/10/18 02:53:20;;;;;;;1999.90;999.90;;;16.40;99.90;;;;;;5074635;28;20168;-66
2022/10/18 02:55:45;;;;;;;1999.90;999.90;;;16.40;99.90;;;;;;5074420;28;20220;-67
2022/10/18 02:58:11;;;;;;;1999.90;999.90;;;16.50;99.90;;;;;;5074184;28;20163;-67
2022/10/18 03:00:36;;;;;;;1999.90;999.90;;;16.40;99.90;;;;;;5074187;28;20206;-67
2022/10/18 03:03:02;;;;;;;1999.90;999.90;;;16.40;99.90;;;;;;5074586;28;20170;-67
2022/10/18 03:05:28;;;;;;;1999.90;999.90;;;16.40;99.90;;;;;;5074436;28;20171;-66
2022/10/18 03:07:56;;;;;;;1999.90;999.90;;;16.40;99.90;;;;;;5074019;28;20163;-66
2022/10/18 03:10:22;;;;;;;1999.90;999.90;;;16.40;99.90;;;;;;5074149;28;20165;-66
2022/10/18 03:12:47;;;;;;;1999.90;999.90;;;16.50;99.90;;;;;;5074150;28;20405;-67
2022/10/18 03:15:13;;;;;;;1999.90;999.90;;;16.50;99.90;;;;;;5073763;28;20246;-66
2022/10/18 03:17:38;;;;;;;1999.90;999.90;;;16.40;99.90;;;;;;5073821;28;20657;-67
2022/10/18 03:20:05;;;;;;;1999.90;999.90;;;16.40;99.90;;;;;;5074001;28;20166;-67
2022/10/18 03:22:30;;;;;;;1999.90;999.90;;;16.40;99.90;;;;;;5073813;28;20195;-66
2022/10/18 03:24:56;;;;;;;1999.90;999.90;;;16.40;99.90;;;;;;5073925;28;20407;-67
2022/10/18 03:27:21;;;;;;;1999.90;999.90;;;16.40;99.90;;;;;;5073661;28;20171;-66
2022/10/18 03:29:47;;;;;;;1999.90;999.90;;;16.40;99.90;;;;;;5073768;28;20173;-66
2022/10/18 03:32:12;;;;;;;1999.90;999.90;;;16.40;99.90;;;;;;5073721;28;20699;-67
2022/10/18 03:34:38;;;;;;;1999.90;999.90;;;16.40;99.90;;;;;;5073744;28;20171;-67
2022/10/18 03:37:04;;;;;;;1999.90;999.90;;;16.40;99.90;;;;;;5073461;28;20173;-67
2022/10/18 03:39:29;;;;;;;1999.90;999.90;;;16.40;99.90;;;;;;5073575;28;20166;-67
2022/10/18 03:41:55;;;;;;;1999.90;999.90;;;16.40;99.90;;;;;;5073365;28;20565;-66
2022/10/18 03:44:20;;;;;;;1999.90;999.90;;;16.40;99.90;;;;;;5073518;28;20176;-67
2022/10/18 03:46:46;;;;;;;1999.90;999.90;;;16.40;99.90;;;;;;5073311;28;20712;-66
2022/10/18 03:49:11;;;;;;;1999.90;999.90;;;16.40;99.90;;;;;;5073452;28;20191;-67
2022/10/18 03:51:37;;;;;;;1999.90;999.90;;;16.40;99.90;;;;;;5073175;28;20214;-66
2022/10/18 03:54:03;;;;;;;1999.90;999.90;;;16.40;99.90;;;;;;5073295;28;20177;-67
2022/10/18 03:56:28;;;;;;;1999.90;999.90;;;16.40;99.90;;;;;;5073123;28;20172;-67
2022/10/18 03:58:54;;;;;;;1999.90;999.90;;;16.40;99.90;;;;;;5073044;28;20264;-67
2022/10/18 04:01:19;;;;;;;1999.90;999.90;;;16.40;99.90;;;;;;5073260;28;20206;-67
2022/10/18 04:03:45;;;;;;;1999.90;999.90;;;16.40;99.90;;;;;;5073110;28;20167;-66
2022/10/18 04:06:11;;;;;;;1999.90;999.90;;;16.40;99.90;;;;;;5073017;28;20171;-67
2022/10/18 04:08:36;;;;;;;1999.90;999.90;;;16.30;99.90;;;;;;5072827;28;20643;-66
2022/10/18 04:11:07;;;;;;;1999.90;999.90;;;16.30;99.90;;;;;;5072924;28;20284;-66
2022/10/18 04:13:34;;;;;;;1999.90;999.90;;;16.30;99.90;;;;;;5072912;28;20230;-66
2022/10/18 04:15:59;;;;;;;1999.90;999.90;;;16.30;99.90;;;;;;5072850;28;20480;-66
2022/10/18 04:18:25;;;;;;;1999.90;999.90;;;16.30;99.90;;;;;;5072749;28;20525;-67
2022/10/18 04:20:50;;;;;;;1999.90;999.90;;;16.30;99.90;;;;;;5072730;28;20194;-66
2022/10/18 04:23:16;;;;;;;1999.90;999.90;;;16.30;99.90;;;;;;5072773;28;20168;-67
2022/10/18 04:25:41;;;;;;;1999.90;999.90;;;16.40;99.90;;;;;;5071877;28;20168;-66
2022/10/18 04:28:07;;;;;;;1999.90;999.90;;;16.40;99.90;;;;;;5072460;28;20181;-66
2022/10/18 04:30:33;;;;;;;1999.90;999.90;;;16.40;99.90;;;;;;5072566;28;20191;-66
2022/10/18 04:32:58;;;;;;;1999.90;999.90;;;16.40;99.90;;;;;;5072615;28;20545;-66
2022/10/18 04:35:24;;;;;;;1999.90;999.90;;;16.50;99.90;;;;;;5072616;28;20199;-67
2022/10/18 04:37:50;;;;;;;1999.90;999.90;;;16.50;99.90;;;;;;5072298;28;20205;-66
2022/10/18 04:40:16;;;;;;;1999.90;999.90;;;16.50;99.90;;;;;;5072244;28;20451;-67
2022/10/18 04:42:41;;;;;;;1999.90;999.90;;;16.40;99.90;;;;;;5082627;28;20170;-67
2022/10/18 04:45:07;;;;;;;1999.90;999.90;;;16.50;99.90;;;;;;5092675;28;20204;-66
2022/10/18 04:47:33;;;;;;;1999.90;999.90;;;16.50;99.90;;;;;;5092347;28;20173;-67
2022/10/18 04:49:59;;;;;;;1999.90;999.90;;;16.40;99.90;;;;;;5092536;28;20822;-66
2022/10/18 04:52:24;;;;;;;1999.90;999.90;;;16.40;99.90;;;;;;5092409;28;20203;-67
2022/10/18 04:54:50;;;;;;;1999.90;999.90;;;16.40;99.90;;;;;;5092460;28;20158;-66
2022/10/18 04:57:15;;;;;;;1999.90;999.90;;;16.40;99.90;;;;;;5092211;28;20163;-67
2022/10/18 04:59:41;;;;;;;1999.90;999.90;;;16.40;99.90;;;;;;5092296;28;20168;-66
2022/10/18 05:02:07;;;;;;;1999.90;999.90;;;16.40;99.90;;;;;;5092237;28;20211;-66
2022/10/18 05:04:32;;;;;;;1999.90;999.90;;;16.40;99.90;;;;;;5092363;28;20165;-67
2022/10/18 05:06:58;;;;;;;1999.90;999.90;;;16.40;99.90;;;;;;5092121;28;20168;-66
2022/10/18 05:09:24;;;;;;;1999.90;999.90;;;16.50;99.90;;;;;;5092199;28;20219;-66
2022/10/18 05:11:49;;;;;;;1999.90;999.90;;;16.50;99.90;;;;;;5092203;28;20535;-66
2022/10/18 05:14:15;;;;;;;1999.90;999.90;;;16.40;99.90;;;;;;5092220;28;20167;-67
2022/10/18 05:16:41;;;;;;;1999.90;999.90;;;16.40;99.90;;;;;;5091968;28;20171;-66
2022/10/18 05:19:06;;;;;;;1999.90;999.90;;;16.50;99.90;;;;;;5092169;28;20181;-67
2022/10/18 05:21:32;;;;;;;1999.90;999.90;;;16.50;99.90;;;;;;5092002;28;20676;-66
2022/10/18 05:23:58;;;;;;;1999.90;999.90;;;16.50;99.90;;;;;;5092172;28;20539;-67
2022/10/18 05:26:24;;;;;;;1999.90;999.90;;;16.50;99.90;;;;;;5091972;28;20403;-66
2022/10/18 05:28:49;;;;;;;1999.90;999.90;;;16.50;99.90;;;;;;5091883;28;20168;-67
2022/10/18 05:31:15;;;;;;;1999.90;999.90;;;16.50;99.90;;;;;;5091986;28;20182;-66
2022/10/18 05:33:41;;;;;;;1999.90;999.90;;;16.50;99.90;;;;;;5092020;28;20198;-66
2022/10/18 05:36:07;;;;;;;1999.90;999.90;;;16.60;99.90;;;;;;5091949;28;20402;-67
2022/10/18 05:38:33;;;;;;;1999.90;999.90;;;16.60;99.90;;;;;;5095502;28;20626;-66
2022/10/18 05:41:02;;;;;;;1999.90;999.90;;;16.50;99.90;;;;;;5095943;28;20477;-67
2022/10/18 05:43:28;;;;;;;1999.90;999.90;;;16.60;99.90;;;;;;5096140;28;20173;-67
2022/10/18 05:45:54;;;;;;;1999.90;999.90;;;16.60;99.90;;;;;;5095942;28;20432;-66
2022/10/18 05:48:20;;;;;;;1999.90;999.90;;;16.50;99.90;;;;;;5095869;28;20809;-66
2022/10/18 05:50:45;;;;;;;1999.90;999.90;;;16.50;99.90;;;;;;5095788;28;20434;-67
2022/10/18 05:53:11;;;;;;;1999.90;999.90;;;16.50;99.90;;;;;;5095950;28;20169;-66
2022/10/18 05:55:37;;;;;;;1999.90;999.90;;;16.50;99.90;;;;;;5095845;28;20631;-66
2022/10/18 05:58:03;;;;;;;1999.90;999.90;;;16.50;99.90;;;;;;5095625;28;20166;-66
2022/10/18 06:00:29;;;;;;;1999.90;999.90;;;16.50;99.90;;;;;;5095687;28;20201;-67
2022/10/18 06:02:55;;;;;;;1999.90;999.90;;;16.50;99.90;;;;;;5095708;28;20465;-66
2022/10/18 06:05:20;;;;;;;1999.90;999.90;;;16.50;99.90;;;;;;5095833;28;20403;-67
2022/10/18 06:07:46;;;;;;;1999.90;999.90;;;16.60;99.90;;;;;;5095311;28;20531;-67
2022/10/18 06:10:12;;;;;;;1999.90;999.90;;;16.70;99.90;;;;;;5095512;28;20172;-67
2022/10/18 06:12:37;;;;;;;1999.90;999.90;;;16.70;99.90;;;;;;5095616;28;20668;-67
2022/10/18 06:15:03;;;;;;;1999.90;999.90;;;16.70;99.90;;;;;;5095544;28;20169;-66
2022/10/18 06:17:29;;;;;;;1999.90;999.90;;;16.70;99.90;;;;;;5095249;28;20258;-66
2022/10/18 06:19:54;;;;;;;1999.90;999.90;;;16.70;99.90;;;;;;5095350;28;20411;-66
2022/10/18 06:22:20;;;;;;;1999.90;999.90;;;16.70;99.90;;;;;;5095158;28;20195;-66
2022/10/18 06:24:45;;;;;;;1999.90;999.90;;;16.70;99.90;;;;;;5095286;28;20175;-66
2022/10/18 06:27:11;;;;;;;1999.90;999.90;;;16.80;99.90;;;;;;5095080;28;20169;-66
2022/10/18 06:29:38;;;;;;;1999.90;999.90;;;16.70;99.90;;;;;;5095147;28;20173;-66
2022/10/18 06:32:05;;;;;;;1999.90;999.90;;;16.70;99.90;;;;;;5095201;28;20191;-67
2022/10/18 06:34:31;;;;;;;1999.90;999.90;;;16.70;99.90;;;;;;5095164;28;20400;-67
2022/10/18 06:36:57;;;;;;;1999.90;999.90;;;16.70;99.90;;;;;;5094819;28;20638;-66
2022/10/18 06:39:22;;;;;;;1999.90;999.90;;;16.60;99.90;;;;;;5094931;28;20470;-66
2022/10/18 06:41:48;;;;;;;1999.90;999.90;;;16.70;99.90;;;;;;5095093;28;20209;-67
2022/10/18 06:44:16;;;;;;;1999.90;999.90;;;16.70;99.90;;;;;;5094993;28;20169;-67
2022/10/18 06:46:43;;;;;;;1999.90;999.90;;;16.70;99.90;;;;;;5094713;28;20159;-67
2022/10/18 06:49:09;;;;;;;1999.90;999.90;;;16.70;99.90;;;;;;5094029;28;20900;-67
2022/10/18 06:51:35;;;;;;;1999.90;999.90;;;16.70;99.90;;;;;;5129128;22;20973;-70
2022/10/18 06:54:01;;;;;;;1999.90;999.90;;;16.70;99.90;;;;;;5074415;28;20468;-69
2022/10/18 06:56:26;;;;;;;1999.90;999.90;;;16.70;99.90;;;;;;5074608;28;20455;-69
2022/10/18 06:58:52;;;;;;;1999.90;999.90;;;16.70;99.90;;;;;;5074314;28;20829;-69
2022/10/18 07:01:18;;;;;;;1999.90;999.90;;;16.70;99.90;;;;;;5074180;28;20199;-69
2022/10/18 07:03:46;;;;;;;1999.90;999.90;;;16.70;99.90;;;;;;5074376;28;20159;-69
2022/10/18 07:06:13;;;;;;;1999.90;999.90;;;16.70;99.90;;;;;;5074224;28;20402;-69
2022/10/18 07:08:39;;;;;;;1999.90;999.90;;;16.70;99.90;;;;;;5074258;28;21099;-69
2022/10/18 07:11:06;;;;;;;1999.90;999.90;;;16.70;99.90;;;;;;5074163;28;20454;-69
2022/10/18 07:13:33;;;;;;;1999.90;999.90;;;16.70;99.90;;;;;;5074197;28;20398;-69
2022/10/18 07:16:19;;;;;;;1999.90;999.90;;;16.70;99.90;;;;;;5074034;28;20441;-69
2022/10/18 07:18:50;;;;;;;1999.90;999.90;;;16.70;99.90;;;;;;5073364;28;20898;-69
2022/10/18 07:21:18;;;;;;;1999.90;999.90;;;16.70;99.90;;;;;;5074009;28;20444;-69
2022/10/18 07:23:47;;;;;;;1999.90;999.90;;;16.70;99.90;;;;;;5074006;28;20462;-69
2022/10/18 07:26:14;;;;;;;1999.90;999.90;;;16.70;99.90;;;;;;5073997;28;20420;-68
2022/10/18 07:28:40;;;;;;;1999.90;999.90;;;16.70;99.90;;;;;;5073728;28;20487;-69
2022/10/18 07:31:07;;;;;;;1999.90;999.90;;;16.70;99.90;;;;;;5073651;28;20429;-69
2022/10/18 07:33:34;;;;;;;1999.90;999.90;;;16.70;99.90;;;;;;5073875;28;20455;-69
2022/10/18 07:36:02;;;;;;;1999.90;999.90;;;16.60;99.90;;;;;;5073746;28;20407;-69
2022/10/18 07:38:27;;;;;;;1999.90;999.90;;;16.70;99.90;;;;;;5073401;28;20408;-69
2022/10/18 07:40:57;;;;;;;1999.90;999.90;;;16.60;99.90;;;;;;5073448;28;20439;-69
2022/10/18 07:43:23;;;;;;;1999.90;999.90;;;16.60;99.90;;;;;;5073631;28;20170;-69
2022/10/18 07:45:57;;;;;;;1999.90;999.90;;;16.60;99.90;;;;;;5073412;28;20904;-69
2022/10/18 07:48:23;;;;;;;1999.90;999.90;;;16.50;99.90;;;;;;5073528;28;20181;-69
2022/10/18 07:50:49;;;;;;;1999.90;999.90;;;16.40;99.90;;;;;;5073211;28;20397;-69
2022/10/18 07:53:15;;;;;;;1999.90;999.90;;;16.40;99.90;;;;;;5073386;28;20169;-69
2022/10/18 07:55:41;;;;;;;1999.90;999.90;;;16.40;99.90;;;;;;5073314;28;20191;-69
2022/10/18 07:58:06;;;;;;;1999.90;999.90;;;16.40;99.90;;;;;;5073002;28;20414;-69
2022/10/18 08:00:32;;;;;;;1999.90;999.90;;;16.40;99.90;;;;;;5072126;28;21088;-69
2022/10/18 08:02:58;;;;;;;1999.90;999.90;;;16.40;99.90;;;;;;5073118;28;20241;-69
2022/10/18 08:05:25;;;;;;;1999.90;999.90;;;16.40;99.90;;;;;;5073237;28;20404;-69
2022/10/18 08:07:51;;;;;;;1999.90;999.90;;;16.30;99.90;;;;;;5072628;28;20460;-69
2022/10/18 08:10:18;;;;;;;1999.90;999.90;;;16.30;99.90;;;;;;5073063;28;20408;-69
2022/10/18 08:12:43;;;;;;;1999.90;999.90;;;16.30;99.90;;;;;;5072856;28;20990;-69
2022/10/18 08:15:09;;;;;;;1999.90;999.90;;;16.30;99.90;;;;;;5073194;28;20415;-69
2022/10/18 08:17:35;;;;;;;1999.90;999.90;;;16.30;99.90;;;;;;5072596;28;20706;-69
2022/10/18 08:20:00;;;;;;;1999.90;999.90;;;16.30;99.90;;;;;;5072794;28;20509;-69
2022/10/18 08:22:26;;;;;;;1999.90;999.90;;;16.40;99.90;;;;;;5072633;28;20204;-69
2022/10/18 08:24:52;;;;;;;1999.90;999.90;;;16.40;99.90;;;;;;5072678;28;20181;-70
2022/10/18 08:27:17;;;;;;;1999.90;999.90;;;16.40;99.90;;;;;;5072451;28;20245;-69
2022/10/18 08:29:43;;;;;;;1999.90;999.90;;;16.40;99.90;;;;;;5072491;28;20674;-69
2022/10/18 08:32:08;;;;;;;1999.90;999.90;;;16.30;99.90;;;;;;5072399;28;20194;-69
2022/10/18 08:34:35;;;;;;;1999.90;999.90;;;16.20;99.90;;;;;;5072548;28;20630;-70
2022/10/18 08:37:02;;;;;;;1999.90;999.90;;;16.10;99.90;;;;;;5072265;28;20192;-69
2022/10/18 08:39:28;;;;;;;1999.90;999.90;;;16.10;99.90;;;;;;5072521;28;20718;-69
2022/10/18 08:42:18;;;;;;;1999.90;999.90;;;16.10;99.90;;;;;;5072272;28;20477;-69
2022/10/18 08:44:47;;;;;;;1999.90;999.90;;;16.00;99.90;;;;;;5072422;28;20453;-71
2022/10/18 08:47:20;;;;;;;1999.90;999.90;;;16.00;99.90;;;;;;5072286;28;20405;-69
2022/10/18 08:49:59;;;;;;;1999.90;999.90;;;16.10;99.90;;;;;;5072265;28;20394;-69
2022/10/18 08:52:49;;;;;;;1999.90;999.90;;;16.10;99.90;;;;;;5072044;28;20528;-69
2022/10/18 08:55:38;;;;;;;1999.90;999.90;;;16.10;99.90;;;;;;5072277;28;20464;-69
2022/10/18 08:58:25;;;;;;;1999.90;999.90;;;16.10;99.90;;;;;;5071973;28;20404;-70
2022/10/18 09:01:01;;;;;;;1999.90;999.90;;;16.20;99.90;;;;;;5072002;28;20438;-70
2022/10/18 09:03:54;;;;;;;1999.90;999.90;;;16.20;99.90;;;;;;5069683;28;20938;-66
2022/10/18 09:06:54;;;;;;;1999.90;999.90;;;16.30;99.90;;;;;;5068361;28;20447;-67
2022/10/18 09:09:25;;;;;;;1999.90;999.90;;;16.50;99.90;;;;;;5063706;28;20423;-68
2022/10/18 09:12:03;;;;;;;1999.90;999.90;;;16.60;99.90;;;;;;5068889;28;20423;-67
2022/10/18 09:14:46;;;;;;;1999.90;999.90;;;16.70;99.90;;;;;;5064384;28;20396;-68
2022/10/18 09:17:26;;;;;;;1999.90;999.90;;;16.70;99.90;;;;;;5061527;28;20454;-68
2022/10/18 09:20:19;;;;;;;1999.90;999.90;;;16.90;99.90;;;;;;5070753;28;20417;-68
2022/10/18 09:22:51;;;;;;;1999.90;999.90;;;17.00;99.90;;;;;;5049260;28;20531;-68
2022/10/18 09:25:44;;;;;;;1999.90;999.90;;;17.00;99.90;;;;;;5071456;28;20843;-68
2022/10/18 09:28:27;;;;;;;1999.90;999.90;;;17.00;99.90;;;;;;5071084;28;20452;-68
2022/10/18 09:31:04;;;;;;;1999.90;999.90;;;17.00;99.90;;;;;;5071411;28;20416;-68
2022/10/18 09:33:38;;;;;;;1999.90;999.90;;;17.00;99.90;;;;;;5071675;28;20402;-68
2022/10/18 09:36:07;;;;;;;1999.90;999.90;;;17.00;99.90;;;;;;5071266;28;20413;-68
2022/10/18 09:38:55;;;;;;;1999.90;999.90;;;17.10;99.90;;;;;;5071141;28;20478;-68
2022/10/18 09:41:45;;;;;;;1999.90;999.90;;;17.10;99.90;;;;;;5065160;28;20449;-70
2022/10/18 09:44:35;;;;;;;1999.90;999.90;;;17.10;99.90;;;;;;5070639;28;20919;-70
2022/10/18 09:47:25;;;;;;;1999.90;999.90;;;17.10;99.90;;;;;;5070166;28;20399;-70
2022/10/18 09:50:00;;;;;;;1999.90;999.90;;;17.30;99.90;;;;;;5059892;28;20420;-70
2022/10/18 09:52:34;;;;;;;1999.90;999.90;;;17.30;99.90;;;;;;5069860;28;20463;-70
2022/10/18 09:55:04;;;;;;;1999.90;999.90;;;17.30;99.90;;;;;;5069823;28;20412;-70
2022/10/18 09:57:40;;;;;;;1999.90;999.90;;;17.40;99.90;;;;;;5070289;28;20440;-69
2022/10/18 10:00:15;;;;;;;1999.90;999.90;;;17.40;99.90;;;;;;5070914;28;20384;-70
2022/10/18 10:02:41;;;;;;;1999.90;999.90;;;17.40;99.90;;;;;;5070379;28;20456;-70
2022/10/18 10:05:12;;;;;;;1999.90;999.90;;;17.60;99.90;;;;;;5051879;28;20965;-70
2022/10/18 10:07:46;;;;;;;1999.90;999.90;;;17.60;99.90;;;;;;5070063;28;20177;-70
2022/10/18 10:10:23;;;;;;;1999.90;999.90;;;17.50;99.90;;;;;;5070956;28;20822;-70
2022/10/18 10:13:05;;;;;;;1999.90;999.90;;;17.50;99.90;;;;;;5068956;28;20436;-69
2022/10/18 10:15:32;;;;;;;1999.90;999.90;;;17.50;99.90;;;;;;5070567;28;20428;-70
2022/10/18 10:18:18;;;;;;;1999.90;999.90;;;17.30;99.90;;;;;;5070185;28;20409;-70
2022/10/18 10:20:53;;;;;;;1999.90;999.90;;;17.30;99.90;;;;;;5070191;28;20403;-70
2022/10/18 10:23:27;;;;;;;1999.90;999.90;;;17.20;99.90;;;;;;5070083;28;20967;-70
2022/10/18 10:26:00;;;;;;;1999.90;999.90;;;17.20;99.90;;;;;;5074071;28;20981;-70
2022/10/18 10:28:30;;;;;;;1999.90;999.90;;;17.30;99.90;;;;;;5073590;28;20388;-69
2022/10/18 10:31:23;;;;;;;1999.90;999.90;;;17.30;99.90;;;;;;5073541;28;20847;-70
2022/10/18 10:34:00;;;;;;;1999.90;999.90;;;17.20;99.90;;;;;;5074303;28;20838;-68
2022/10/18 10:36:26;;;;;;;1999.90;999.90;;;17.20;99.90;;;;;;5074027;28;20389;-70
2022/10/18 10:39:22;;;;;;;1999.90;999.90;;;17.30;99.90;;;;;;5072909;28;20862;-70
2022/10/18 10:41:57;;;;;;;1999.90;999.90;;;17.30;99.90;;;;;;5056941;28;20465;-70
2022/10/18 10:44:29;;;;;;;1999.90;999.90;;;17.40;99.90;;;;;;5073607;28;20420;-70
2022/10/18 10:46:56;;;;;;;1999.90;999.90;;;17.50;99.90;;;;;;5073687;28;20784;-70
2022/10/18 10:49:44;;;;;;;1999.90;999.90;;;17.50;99.90;;;;;;5073198;28;20775;-69
2022/10/18 10:52:20;;;;;;;1999.90;999.90;;;17.60;99.90;;;;;;5073707;28;20474;-70
2022/10/18 10:54:46;;;;;;;1999.90;999.90;;;17.70;99.90;;;;;;5073771;28;20410;-70
2022/10/18 10:57:11;;;;;;;1999.90;999.90;;;18.00;99.90;;;;;;5072947;28;20921;-68
2022/10/18 10:59:44;;;;;;;1999.90;999.90;;;18.20;99.90;;;;;;5073494;28;20412;-70
2022/10/18 11:02:16;;;;;;;1999.90;999.90;;;18.50;99.90;;;;;;5073629;28;20266;-70
2022/10/18 11:04:44;;;;;;;1999.90;999.90;;;18.80;99.90;;;;;;5072751;28;20406;-69
2022/10/18 11:07:34;;;;;;;1999.90;999.90;;;19.00;99.90;;;;;;5073215;28;20493;-70
2022/10/18 11:10:09;;;;;;;1999.90;999.90;;;19.20;99.90;;;;;;5073357;28;20406;-70
2022/10/18 11:13:02;;;;;;;1999.90;999.90;;;19.40;99.90;;;;;;5073140;28;20524;-70
2022/10/18 11:15:42;;;;;;;1999.90;999.90;;;19.50;99.90;;;;;;5073236;28;20916;-70
2022/10/18 11:18:19;;;;;;;1999.90;999.90;;;19.60;99.90;;;;;;5072811;28;20390;-70
2022/10/18 11:20:52;;;;;;;1999.90;999.90;;;19.90;99.90;;;;;;5073095;28;20464;-70
2022/10/18 11:23:18;;;;;;;1999.90;999.90;;;20.10;99.90;;;;;;5066062;28;20906;-71
2022/10/18 11:25:59;;;;;;;1999.90;999.90;;;20.00;99.90;;;;;;5072274;28;20415;-70
2022/10/18 11:28:36;;;;;;;1999.90;999.90;;;19.70;99.90;;;;;;5072967;28;20382;-70
2022/10/18 11:31:17;;;;;;;1999.90;999.90;;;19.30;99.90;;;;;;5072904;28;20421;-70
2022/10/18 11:33:43;;;;;;;1999.90;999.90;;;19.10;99.90;;;;;;5073158;28;20456;-70
2022/10/18 11:36:19;;;;;;;1999.90;999.90;;;18.90;99.90;;;;;;5072566;28;20401;-70
2022/10/18 11:39:09;;;;;;;1999.90;999.90;;;18.90;99.90;;;;;;5072617;28;20152;-70
2022/10/18 11:41:48;;;;;;;1999.90;999.90;;;19.00;99.90;;;;;;5072248;28;20452;-70
2022/10/18 11:44:40;;;;;;;1999.90;999.90;;;18.90;99.90;;;;;;5072195;28;20411;-70
2022/10/18 11:47:33;;;;;;;1999.90;999.90;;;19.20;99.90;;;;;;5072115;28;20429;-70
2022/10/18 11:50:33;;;;;;;1999.90;999.90;;;19.20;99.90;;;;;;5072453;28;20471;-70
2022/10/18 11:53:08;;;;;;;1999.90;999.90;;;19.10;99.90;;;;;;5072669;28;20461;-69
2022/10/18 11:55:54;;;;;;;1999.90;999.90;;;18.90;99.90;;;;;;5072058;28;20904;-70
2022/10/18 11:58:30;;;;;;;1999.90;999.90;;;18.80;99.90;;;;;;5072221;28;20748;-70
2022/10/18 12:01:05;;;;;;;1999.90;999.90;;;18.60;99.90;;;;;;5072536;28;20465;-70
2022/10/18 12:03:43;;;;;;;1999.90;999.90;;;18.50;99.90;;;;;;5071534;28;20782;-70
2022/10/18 12:06:15;;;;;;;1999.90;999.90;;;18.50;99.90;;;;;;5071941;28;20778;-70
2022/10/18 12:08:46;;;;;;;1999.90;999.90;;;18.60;99.90;;;;;;5072064;28;20470;-70
2022/10/18 12:11:18;;;;;;;1999.90;999.90;;;18.50;99.90;;;;;;5071850;28;20440;-69
2022/10/18 12:13:59;;;;;;;1999.90;999.90;;;18.40;99.90;;;;;;5072731;28;20396;-69
2022/10/18 12:16:30;;;;;;;1999.90;999.90;;;18.40;99.90;;;;;;5071968;28;20407;-70
2022/10/18 12:19:01;;;;;;;1999.90;999.90;;;18.40;99.90;;;;;;5071161;28;20404;-70
2022/10/18 12:21:30;;;;;;;1999.90;999.90;;;18.40;99.90;;;;;;5071789;28;20452;-70
2022/10/18 12:23:58;;;;;;;1999.90;999.90;;;18.50;99.90;;;;;;5071492;28;20411;-70
2022/10/18 12:26:27;;;;;;;1999.90;999.90;;;18.60;99.90;;;;;;5071279;28;20454;-70
2022/10/18 12:29:17;;;;;;;1999.90;999.90;;;18.80;99.90;;;;;;5071280;28;20463;-70
2022/10/18 12:31:48;;;;;;;1999.90;999.90;;;19.00;99.90;;;;;;5071615;28;20506;-70
2022/10/18 12:34:20;;;;;;;1999.90;999.90;;;19.60;99.90;;;;;;5071591;28;20438;-70
2022/10/18 12:37:07;;;;;;;1999.90;999.90;;;20.70;99.90;;;;;;5071335;28;20905;-70
2022/10/18 12:39:44;;;;;;;1999.90;999.90;;;21.30;99.90;;;;;;5071192;28;20412;-68
2022/10/18 12:42:28;;;;;;;1999.90;999.90;;;21.40;99.90;;;;;;5071535;28;20513;-70
2022/10/18 12:45:03;;;;;;;1999.90;999.90;;;20.90;99.90;;;;;;5071320;28;20415;-70
2022/10/18 12:47:29;;;;;;;1999.90;999.90;;;20.40;99.90;;;;;;5069999;28;20810;-71
2022/10/18 12:50:01;;;;;;;1999.90;999.90;;;20.30;99.90;;;;;;5071430;28;20969;-70
2022/10/18 12:52:29;;;;;;;1999.90;999.90;;;20.60;99.90;;;;;;5071987;28;20470;-70
2022/10/18 12:55:03;;;;;;;1999.90;999.90;;;21.10;99.90;;;;;;5071436;28;20420;-70
2022/10/18 12:57:51;;;;;;;1999.90;999.90;;;21.00;99.90;;;;;;5070766;28;20424;-70
2022/10/18 13:00:28;;;;;;;1999.90;999.90;;;20.70;99.90;;;;;;5071308;28;20934;-70
2022/10/18 13:03:13;;;;;;;1999.90;999.90;;;20.40;99.90;;;;;;5070485;28;20456;-70
2022/10/18 13:05:57;;;;;;;1999.90;999.90;;;20.20;99.90;;;;;;5071322;28;20411;-70
2022/10/18 13:08:29;;;;;;;1999.90;999.90;;;20.00;99.90;;;;;;5071063;28;20786;-70
2022/10/18 13:11:00;;;;;;;1999.90;999.90;;;19.60;99.90;;;;;;5070866;28;20784;-70
2022/10/18 13:14:03;;;;;;;1999.90;999.90;;;19.50;99.90;;;;;;5070891;28;20541;-70
2022/10/18 13:16:41;;;;;;;1999.90;999.90;;;20.30;99.90;;;;;;5070721;28;20413;-70
2022/10/18 13:19:22;;;;;;;1999.90;999.90;;;21.30;99.90;;;;;;5070429;28;20922;-71
2022/10/18 13:21:54;;;;;;;1999.90;999.90;;;21.90;99.90;;;;;;5071001;28;20482;-70
2022/10/18 13:24:31;;;;;;;1999.90;999.90;;;22.60;99.90;;;;;;5069775;28;20418;-70
2022/10/18 13:27:24;;;;;;;1999.90;999.90;;;22.90;99.90;;;;;;5070972;28;20776;-70
2022/10/18 13:30:10;;;;;;;1999.90;999.90;;;23.00;99.90;;;;;;5070470;28;20418;-70
2022/10/18 13:32:43;;;;;;;1999.90;999.90;;;22.80;99.90;;;;;;5070893;28;20432;-70
2022/10/18 13:35:43;;;;;;;1999.90;999.90;;;22.70;99.90;;;;;;5069196;28;20416;-70
2022/10/18 13:38:37;;;;;;;1999.90;999.90;;;22.00;99.90;;;;;;5068720;28;20407;-70
2022/10/18 13:41:10;;;;;;;1999.90;999.90;;;21.70;99.90;;;;;;5069084;28;20456;-70
2022/10/18 13:43:57;;;;;;;1999.90;999.90;;;22.50;99.90;;;;;;5069015;28;20417;-70